sensor_id;sensor_type;location;lat;lon;timestamp;P1;durP1;ratioP1;P2;durP2;ratioP2
10554;SDS011;5326;51.522;7.388;2022-07-23T00:00:16;10.27;;;4.87;;
10554;SDS011;5326;51.522;7.388;2022-07-23T00:02:43;7.57;;;4.87;;
10554;SDS011;5326;51.522;7.388;2022-07-23T00:05:10;6.30;;;4.93;;
10554;SDS011;5326;51.522;7.388;2022-07-23T00:07:37;10.80;;;5.20;;
10554;SDS011;5326;51.522;7.388;2022-07-23T00:10:04;11.23;;;5.30;;
10554;SDS011;5326;51.522;7.388;2022-07-23T00:12:31;7.50;;;4.97;;
10554;SDS011;5326;51.522;7.388;2022-07-23T00:14:58;9.50;;;4.63;;
10554;SDS011;5326;51.522;7.388;2022-07-23T00:17:25;11.13;;;5.30;;
10554;SDS011;5326;51.522;7.388;2022-07-23T00:19:51;6.50;;;4.63;;
10554;SDS011;5326;51.522;7.388;2022-07-23T00:22:19;11.60;;;4.97;;
10554;SDS011;5326;51.522;7.388;2022-07-23T00:24:46;8.63;;;4.50;;
10554;SDS011;5326;51.522;7.388;2022-07-23T00:27:33;7.67;;;4.67;;
10554;SDS011;5326;51.522;7.388;2022-07-23T00:29:59;9.97;;;4.90;;
10554;SDS011;5326;51.522;7.388;2022-07-23T00:32:26;9.90;;;5.03;;
10554;SDS011;5326;51.522;7.388;2022-07-23T00:35:13;13.93;;;5.43;;
10554;SDS011;5326;51.522;7.388;2022-07-23T00:37:39;5.70;;;4.93;;
10554;SDS011;5326;51.522;7.388;2022-07-23T00:40:06;8.27;;;5.33;;
10554;SDS011;5326;51.522;7.388;2022-07-23T00:42:33;6.27;;;4.83;;
10554;SDS011;5326;51.522;7.388;2022-07-23T00:45:00;7.30;;;5.00;;
10554;SDS011;5326;51.522;7.388;2022-07-23T00:47:27;7.27;;;4.90;;
10554;SDS011;5326;51.522;7.388;2022-07-23T00:49:53;8.23;;;4.80;;
10554;SDS011;5326;51.522;7.388;2022-07-23T00:52:20;5.47;;;4.50;;
10554;SDS011;5326;51.522;7.388;2022-07-23T00:54:47;10.07;;;5.10;;
10554;SDS011;5326;51.522;7.388;2022-07-23T00:57:13;5.80;;;4.83;;
10554;SDS011;5326;51.522;7.388;2022-07-23T00:59:40;7.03;;;4.80;;
10554;SDS011;5326;51.522;7.388;2022-07-23T01:02:08;8.60;;;5.33;;
10554;SDS011;5326;51.522;7.388;2022-07-23T01:04:34;12.37;;;5.80;;
10554;SDS011;5326;51.522;7.388;2022-07-23T01:07:01;11.83;;;5.47;;
10554;SDS011;5326;51.522;7.388;2022-07-23T01:09:28;7.73;;;5.27;;
10554;SDS011;5326;51.522;7.388;2022-07-23T01:11:55;6.87;;;4.83;;
10554;SDS011;5326;51.522;7.388;2022-07-23T01:14:23;8.97;;;5.17;;
10554;SDS011;5326;51.522;7.388;2022-07-23T01:16:49;10.53;;;5.33;;
10554;SDS011;5326;51.522;7.388;2022-07-23T01:19:16;11.13;;;5.67;;
10554;SDS011;5326;51.522;7.388;2022-07-23T01:21:44;11.80;;;6.77;;
10554;SDS011;5326;51.522;7.388;2022-07-23T01:24:13;9.33;;;6.43;;
10554;SDS011;5326;51.522;7.388;2022-07-23T01:26:44;7.30;;;5.57;;
10554;SDS011;5326;51.522;7.388;2022-07-23T01:29:11;12.00;;;6.80;;
10554;SDS011;5326;51.522;7.388;2022-07-23T01:31:38;8.73;;;5.73;;
10554;SDS011;5326;51.522;7.388;2022-07-23T01:34:05;6.47;;;5.53;;
10554;SDS011;5326;51.522;7.388;2022-07-23T01:36:33;9.30;;;5.70;;
10554;SDS011;5326;51.522;7.388;2022-07-23T01:39:02;8.53;;;5.70;;
10554;SDS011;5326;51.522;7.388;2022-07-23T01:41:30;7.23;;;5.37;;
10554;SDS011;5326;51.522;7.388;2022-07-23T01:43:57;9.27;;;5.80;;
10554;SDS011;5326;51.522;7.388;2022-07-23T01:46:23;5.70;;;5.00;;
10554;SDS011;5326;51.522;7.388;2022-07-23T01:48:50;6.93;;;4.90;;
10554;SDS011;5326;51.522;7.388;2022-07-23T01:51:17;9.53;;;5.37;;
10554;SDS011;5326;51.522;7.388;2022-07-23T01:53:44;9.23;;;5.47;;
10554;SDS011;5326;51.522;7.388;2022-07-23T01:56:10;8.33;;;5.80;;
10554;SDS011;5326;51.522;7.388;2022-07-23T01:58:37;6.10;;;4.67;;
10554;SDS011;5326;51.522;7.388;2022-07-23T02:01:04;9.10;;;5.47;;
10554;SDS011;5326;51.522;7.388;2022-07-23T02:03:31;6.37;;;5.30;;
10554;SDS011;5326;51.522;7.388;2022-07-23T02:05:58;8.03;;;5.40;;
10554;SDS011;5326;51.522;7.388;2022-07-23T02:08:24;7.17;;;5.60;;
10554;SDS011;5326;51.522;7.388;2022-07-23T02:10:51;8.10;;;5.90;;
10554;SDS011;5326;51.522;7.388;2022-07-23T02:13:17;8.83;;;5.20;;
10554;SDS011;5326;51.522;7.388;2022-07-23T02:15:45;8.07;;;6.87;;
10554;SDS011;5326;51.522;7.388;2022-07-23T02:18:13;8.07;;;6.47;;
10554;SDS011;5326;51.522;7.388;2022-07-23T02:20:40;7.97;;;6.30;;
10554;SDS011;5326;51.522;7.388;2022-07-23T02:23:07;9.13;;;6.70;;
10554;SDS011;5326;51.522;7.388;2022-07-23T02:25:34;10.27;;;6.23;;
10554;SDS011;5326;51.522;7.388;2022-07-23T02:28:00;7.40;;;6.57;;
10554;SDS011;5326;51.522;7.388;2022-07-23T02:30:27;7.13;;;6.43;;
10554;SDS011;5326;51.522;7.388;2022-07-23T02:32:54;7.37;;;6.67;;
10554;SDS011;5326;51.522;7.388;2022-07-23T02:35:21;9.93;;;6.43;;
10554;SDS011;5326;51.522;7.388;2022-07-23T02:37:47;10.07;;;6.40;;
10554;SDS011;5326;51.522;7.388;2022-07-23T02:40:16;9.37;;;6.93;;
10554;SDS011;5326;51.522;7.388;2022-07-23T02:42:43;9.20;;;7.00;;
10554;SDS011;5326;51.522;7.388;2022-07-23T02:45:10;12.07;;;7.70;;
10554;SDS011;5326;51.522;7.388;2022-07-23T02:47:36;11.63;;;7.27;;
10554;SDS011;5326;51.522;7.388;2022-07-23T02:50:03;8.47;;;7.47;;
10554;SDS011;5326;51.522;7.388;2022-07-23T02:52:32;10.40;;;7.70;;
10554;SDS011;5326;51.522;7.388;2022-07-23T02:54:58;10.53;;;7.17;;
10554;SDS011;5326;51.522;7.388;2022-07-23T02:57:25;11.60;;;7.13;;
10554;SDS011;5326;51.522;7.388;2022-07-23T02:59:51;9.10;;;7.47;;
10554;SDS011;5326;51.522;7.388;2022-07-23T03:02:18;8.50;;;6.97;;
10554;SDS011;5326;51.522;7.388;2022-07-23T03:04:44;9.27;;;7.40;;
10554;SDS011;5326;51.522;7.388;2022-07-23T03:07:11;14.03;;;8.13;;
10554;SDS011;5326;51.522;7.388;2022-07-23T03:09:38;11.70;;;8.10;;
10554;SDS011;5326;51.522;7.388;2022-07-23T03:12:05;8.53;;;7.63;;
10554;SDS011;5326;51.522;7.388;2022-07-23T03:14:38;9.73;;;7.50;;
10554;SDS011;5326;51.522;7.388;2022-07-23T03:17:05;13.90;;;7.87;;
10554;SDS011;5326;51.522;7.388;2022-07-23T03:19:32;9.27;;;7.23;;
10554;SDS011;5326;51.522;7.388;2022-07-23T03:21:58;10.23;;;7.70;;
10554;SDS011;5326;51.522;7.388;2022-07-23T03:24:25;9.60;;;7.43;;
10554;SDS011;5326;51.522;7.388;2022-07-23T03:27:12;7.30;;;6.37;;
10554;SDS011;5326;51.522;7.388;2022-07-23T03:29:38;9.20;;;7.27;;
10554;SDS011;5326;51.522;7.388;2022-07-23T03:32:05;8.77;;;7.07;;
10554;SDS011;5326;51.522;7.388;2022-07-23T03:34:32;7.90;;;6.73;;
10554;SDS011;5326;51.522;7.388;2022-07-23T03:36:59;12.07;;;7.30;;
10554;SDS011;5326;51.522;7.388;2022-07-23T03:39:27;9.50;;;6.90;;
10554;SDS011;5326;51.522;7.388;2022-07-23T03:41:54;8.80;;;7.07;;
10554;SDS011;5326;51.522;7.388;2022-07-23T03:44:21;8.40;;;6.83;;
10554;SDS011;5326;51.522;7.388;2022-07-23T03:46:48;9.40;;;6.83;;
10554;SDS011;5326;51.522;7.388;2022-07-23T03:49:14;7.90;;;5.70;;
10554;SDS011;5326;51.522;7.388;2022-07-23T03:51:41;8.57;;;7.13;;
10554;SDS011;5326;51.522;7.388;2022-07-23T03:54:08;9.97;;;6.83;;
10554;SDS011;5326;51.522;7.388;2022-07-23T03:56:35;9.93;;;8.23;;
10554;SDS011;5326;51.522;7.388;2022-07-23T03:59:01;10.57;;;7.00;;
10554;SDS011;5326;51.522;7.388;2022-07-23T04:01:29;10.83;;;6.77;;
10554;SDS011;5326;51.522;7.388;2022-07-23T04:03:56;9.87;;;6.87;;
10554;SDS011;5326;51.522;7.388;2022-07-23T04:06:22;8.07;;;6.50;;
10554;SDS011;5326;51.522;7.388;2022-07-23T04:08:49;6.67;;;6.07;;
10554;SDS011;5326;51.522;7.388;2022-07-23T04:11:15;7.00;;;6.30;;
10554;SDS011;5326;51.522;7.388;2022-07-23T04:13:42;8.30;;;6.77;;
10554;SDS011;5326;51.522;7.388;2022-07-23T04:16:09;6.67;;;5.93;;
10554;SDS011;5326;51.522;7.388;2022-07-23T04:18:36;11.50;;;9.60;;
10554;SDS011;5326;51.522;7.388;2022-07-23T04:21:02;24.70;;;19.47;;
10554;SDS011;5326;51.522;7.388;2022-07-23T04:23:29;19.90;;;17.60;;
10554;SDS011;5326;51.522;7.388;2022-07-23T04:25:55;22.30;;;15.17;;
10554;SDS011;5326;51.522;7.388;2022-07-23T04:28:22;15.87;;;13.17;;
10554;SDS011;5326;51.522;7.388;2022-07-23T04:30:49;13.43;;;8.70;;
10554;SDS011;5326;51.522;7.388;2022-07-23T04:33:16;11.60;;;8.57;;
10554;SDS011;5326;51.522;7.388;2022-07-23T04:35:43;13.93;;;12.47;;
10554;SDS011;5326;51.522;7.388;2022-07-23T04:38:09;23.60;;;18.10;;
10554;SDS011;5326;51.522;7.388;2022-07-23T04:40:36;15.53;;;12.43;;
10554;SDS011;5326;51.522;7.388;2022-07-23T04:43:02;16.03;;;10.20;;
10554;SDS011;5326;51.522;7.388;2022-07-23T04:45:29;11.07;;;8.33;;
10554;SDS011;5326;51.522;7.388;2022-07-23T04:47:56;8.40;;;7.53;;
10554;SDS011;5326;51.522;7.388;2022-07-23T04:50:23;9.20;;;6.43;;
10554;SDS011;5326;51.522;7.388;2022-07-23T04:52:50;8.67;;;7.33;;
10554;SDS011;5326;51.522;7.388;2022-07-23T04:55:17;6.93;;;6.20;;
10554;SDS011;5326;51.522;7.388;2022-07-23T04:57:43;7.07;;;6.37;;
10554;SDS011;5326;51.522;7.388;2022-07-23T05:00:10;9.20;;;7.10;;
10554;SDS011;5326;51.522;7.388;2022-07-23T05:02:37;7.53;;;6.43;;
10554;SDS011;5326;51.522;7.388;2022-07-23T05:05:04;8.70;;;7.80;;
10554;SDS011;5326;51.522;7.388;2022-07-23T05:07:31;8.93;;;7.10;;
10554;SDS011;5326;51.522;7.388;2022-07-23T05:09:58;10.07;;;6.87;;
10554;SDS011;5326;51.522;7.388;2022-07-23T05:12:24;9.13;;;6.50;;
10554;SDS011;5326;51.522;7.388;2022-07-23T05:14:51;6.90;;;6.20;;
10554;SDS011;5326;51.522;7.388;2022-07-23T05:17:19;12.90;;;7.03;;
10554;SDS011;5326;51.522;7.388;2022-07-23T05:19:45;12.20;;;7.43;;
10554;SDS011;5326;51.522;7.388;2022-07-23T05:22:12;9.23;;;6.77;;
10554;SDS011;5326;51.522;7.388;2022-07-23T05:24:38;12.27;;;8.23;;
10554;SDS011;5326;51.522;7.388;2022-07-23T05:27:05;9.60;;;7.10;;
10554;SDS011;5326;51.522;7.388;2022-07-23T05:29:32;10.53;;;7.23;;
10554;SDS011;5326;51.522;7.388;2022-07-23T05:31:58;9.83;;;6.97;;
10554;SDS011;5326;51.522;7.388;2022-07-23T05:34:25;8.03;;;7.13;;
10554;SDS011;5326;51.522;7.388;2022-07-23T05:36:52;10.17;;;7.57;;
10554;SDS011;5326;51.522;7.388;2022-07-23T05:39:19;9.70;;;7.70;;
10554;SDS011;5326;51.522;7.388;2022-07-23T05:41:45;8.30;;;6.63;;
10554;SDS011;5326;51.522;7.388;2022-07-23T05:44:12;8.77;;;7.87;;
10554;SDS011;5326;51.522;7.388;2022-07-23T05:46:39;9.37;;;7.60;;
10554;SDS011;5326;51.522;7.388;2022-07-23T05:49:05;8.13;;;7.07;;
10554;SDS011;5326;51.522;7.388;2022-07-23T05:51:32;8.53;;;7.63;;
10554;SDS011;5326;51.522;7.388;2022-07-23T05:53:59;8.87;;;7.83;;
10554;SDS011;5326;51.522;7.388;2022-07-23T05:56:26;11.17;;;8.10;;
10554;SDS011;5326;51.522;7.388;2022-07-23T05:58:52;9.23;;;8.20;;
10554;SDS011;5326;51.522;7.388;2022-07-23T06:01:19;9.00;;;7.80;;
10554;SDS011;5326;51.522;7.388;2022-07-23T06:03:46;10.43;;;8.37;;
10554;SDS011;5326;51.522;7.388;2022-07-23T06:06:12;9.60;;;8.57;;
10554;SDS011;5326;51.522;7.388;2022-07-23T06:08:39;11.97;;;8.93;;
10554;SDS011;5326;51.522;7.388;2022-07-23T06:11:05;8.97;;;7.93;;
10554;SDS011;5326;51.522;7.388;2022-07-23T06:13:32;9.73;;;8.83;;
10554;SDS011;5326;51.522;7.388;2022-07-23T06:15:59;7.67;;;6.93;;
10554;SDS011;5326;51.522;7.388;2022-07-23T06:18:25;9.33;;;7.03;;
10554;SDS011;5326;51.522;7.388;2022-07-23T06:20:52;12.23;;;8.53;;
10554;SDS011;5326;51.522;7.388;2022-07-23T06:23:25;9.13;;;6.50;;
10554;SDS011;5326;51.522;7.388;2022-07-23T06:25:52;7.20;;;6.30;;
10554;SDS011;5326;51.522;7.388;2022-07-23T06:28:19;9.57;;;7.03;;
10554;SDS011;5326;51.522;7.388;2022-07-23T06:30:45;9.20;;;6.33;;
10554;SDS011;5326;51.522;7.388;2022-07-23T06:33:12;12.43;;;7.50;;
10554;SDS011;5326;51.522;7.388;2022-07-23T06:35:39;11.00;;;8.00;;
10554;SDS011;5326;51.522;7.388;2022-07-23T06:38:05;10.60;;;7.43;;
10554;SDS011;5326;51.522;7.388;2022-07-23T06:40:33;9.23;;;7.40;;
10554;SDS011;5326;51.522;7.388;2022-07-23T06:42:59;12.40;;;8.40;;
10554;SDS011;5326;51.522;7.388;2022-07-23T06:45:26;12.33;;;8.97;;
10554;SDS011;5326;51.522;7.388;2022-07-23T06:47:53;17.17;;;13.33;;
10554;SDS011;5326;51.522;7.388;2022-07-23T06:50:19;10.93;;;9.43;;
10554;SDS011;5326;51.522;7.388;2022-07-23T06:52:46;11.60;;;10.07;;
10554;SDS011;5326;51.522;7.388;2022-07-23T06:55:13;12.10;;;8.70;;
10554;SDS011;5326;51.522;7.388;2022-07-23T06:57:40;11.57;;;9.97;;
10554;SDS011;5326;51.522;7.388;2022-07-23T07:00:06;19.53;;;13.77;;
10554;SDS011;5326;51.522;7.388;2022-07-23T07:02:34;14.00;;;12.57;;
10554;SDS011;5326;51.522;7.388;2022-07-23T07:05:00;19.40;;;16.73;;
10554;SDS011;5326;51.522;7.388;2022-07-23T07:07:31;18.70;;;16.43;;
10554;SDS011;5326;51.522;7.388;2022-07-23T07:09:57;24.07;;;17.83;;
10554;SDS011;5326;51.522;7.388;2022-07-23T07:12:24;21.27;;;18.53;;
10554;SDS011;5326;51.522;7.388;2022-07-23T07:14:51;19.93;;;17.57;;
10554;SDS011;5326;51.522;7.388;2022-07-23T07:17:17;25.67;;;22.93;;
10554;SDS011;5326;51.522;7.388;2022-07-23T07:19:44;28.97;;;25.87;;
10554;SDS011;5326;51.522;7.388;2022-07-23T07:22:10;32.27;;;28.87;;
10554;SDS011;5326;51.522;7.388;2022-07-23T07:24:37;29.77;;;26.57;;
10554;SDS011;5326;51.522;7.388;2022-07-23T07:27:04;29.70;;;26.63;;
10554;SDS011;5326;51.522;7.388;2022-07-23T07:29:31;29.00;;;25.37;;
10554;SDS011;5326;51.522;7.388;2022-07-23T07:31:57;24.90;;;22.13;;
10554;SDS011;5326;51.522;7.388;2022-07-23T07:34:24;24.10;;;21.63;;
10554;SDS011;5326;51.522;7.388;2022-07-23T07:36:51;23.47;;;20.97;;
10554;SDS011;5326;51.522;7.388;2022-07-23T07:39:18;19.23;;;16.93;;
10554;SDS011;5326;51.522;7.388;2022-07-23T07:41:44;19.07;;;16.53;;
10554;SDS011;5326;51.522;7.388;2022-07-23T07:44:11;19.57;;;15.80;;
10554;SDS011;5326;51.522;7.388;2022-07-23T07:46:37;20.47;;;18.47;;
10554;SDS011;5326;51.522;7.388;2022-07-23T07:49:04;18.10;;;16.20;;
10554;SDS011;5326;51.522;7.388;2022-07-23T07:51:32;18.47;;;16.47;;
10554;SDS011;5326;51.522;7.388;2022-07-23T07:53:59;19.30;;;15.83;;
10554;SDS011;5326;51.522;7.388;2022-07-23T07:56:27;19.47;;;16.67;;
10554;SDS011;5326;51.522;7.388;2022-07-23T07:58:53;13.70;;;12.30;;
10554;SDS011;5326;51.522;7.388;2022-07-23T08:01:20;14.97;;;13.07;;
10554;SDS011;5326;51.522;7.388;2022-07-23T08:03:47;12.60;;;11.30;;
10554;SDS011;5326;51.522;7.388;2022-07-23T08:06:13;16.53;;;13.67;;
10554;SDS011;5326;51.522;7.388;2022-07-23T08:08:40;13.87;;;10.17;;
10554;SDS011;5326;51.522;7.388;2022-07-23T08:11:07;10.77;;;8.80;;
10554;SDS011;5326;51.522;7.388;2022-07-23T08:13:33;12.73;;;10.03;;
10554;SDS011;5326;51.522;7.388;2022-07-23T08:16:00;16.93;;;13.33;;
10554;SDS011;5326;51.522;7.388;2022-07-23T08:18:27;26.43;;;21.10;;
10554;SDS011;5326;51.522;7.388;2022-07-23T08:20:54;13.00;;;9.57;;
10554;SDS011;5326;51.522;7.388;2022-07-23T08:23:20;15.73;;;11.57;;
10554;SDS011;5326;51.522;7.388;2022-07-23T08:25:54;9.93;;;8.97;;
10554;SDS011;5326;51.522;7.388;2022-07-23T08:28:23;9.00;;;7.33;;
10554;SDS011;5326;51.522;7.388;2022-07-23T08:30:49;8.73;;;6.93;;
10554;SDS011;5326;51.522;7.388;2022-07-23T08:33:16;11.10;;;7.10;;
10554;SDS011;5326;51.522;7.388;2022-07-23T08:36:00;8.53;;;6.80;;
10554;SDS011;5326;51.522;7.388;2022-07-23T08:38:29;7.93;;;5.53;;
10554;SDS011;5326;51.522;7.388;2022-07-23T08:40:56;9.93;;;7.50;;
10554;SDS011;5326;51.522;7.388;2022-07-23T08:43:27;8.10;;;5.77;;
10554;SDS011;5326;51.522;7.388;2022-07-23T08:45:59;7.30;;;6.10;;
10554;SDS011;5326;51.522;7.388;2022-07-23T08:48:28;8.07;;;5.97;;
10554;SDS011;5326;51.522;7.388;2022-07-23T08:50:59;8.40;;;6.87;;
10554;SDS011;5326;51.522;7.388;2022-07-23T08:53:28;12.37;;;6.77;;
10554;SDS011;5326;51.522;7.388;2022-07-23T08:55:58;9.43;;;5.60;;
10554;SDS011;5326;51.522;7.388;2022-07-23T08:58:28;6.60;;;5.03;;
10554;SDS011;5326;51.522;7.388;2022-07-23T09:00:56;5.90;;;4.00;;
10554;SDS011;5326;51.522;7.388;2022-07-23T09:05:52;6.13;;;4.60;;
10554;SDS011;5326;51.522;7.388;2022-07-23T09:08:20;6.97;;;4.23;;
10554;SDS011;5326;51.522;7.388;2022-07-23T09:10:52;8.53;;;5.73;;
10554;SDS011;5326;51.522;7.388;2022-07-23T09:15:53;5.80;;;4.00;;
10554;SDS011;5326;51.522;7.388;2022-07-23T09:18:32;8.80;;;3.83;;
10554;SDS011;5326;51.522;7.388;2022-07-23T09:21:06;5.07;;;4.33;;
10554;SDS011;5326;51.522;7.388;2022-07-23T09:26:18;6.87;;;4.53;;
10554;SDS011;5326;51.522;7.388;2022-07-23T09:34:22;5.37;;;3.57;;
10554;SDS011;5326;51.522;7.388;2022-07-23T09:36:54;7.83;;;4.30;;
10554;SDS011;5326;51.522;7.388;2022-07-23T09:39:29;5.20;;;4.40;;
10554;SDS011;5326;51.522;7.388;2022-07-23T09:41:57;5.70;;;2.93;;
10554;SDS011;5326;51.522;7.388;2022-07-23T09:44:25;3.87;;;2.90;;
10554;SDS011;5326;51.522;7.388;2022-07-23T09:46:57;3.90;;;3.20;;
10554;SDS011;5326;51.522;7.388;2022-07-23T09:49:25;3.40;;;2.80;;
10554;SDS011;5326;51.522;7.388;2022-07-23T09:51:55;6.20;;;4.07;;
10554;SDS011;5326;51.522;7.388;2022-07-23T09:54:34;6.67;;;4.70;;
10554;SDS011;5326;51.522;7.388;2022-07-23T09:57:11;5.80;;;3.63;;
10554;SDS011;5326;51.522;7.388;2022-07-23T09:59:43;6.30;;;5.10;;
10554;SDS011;5326;51.522;7.388;2022-07-23T10:02:12;6.23;;;5.30;;
10554;SDS011;5326;51.522;7.388;2022-07-23T10:04:41;5.60;;;3.50;;
10554;SDS011;5326;51.522;7.388;2022-07-23T10:07:08;4.33;;;3.93;;
10554;SDS011;5326;51.522;7.388;2022-07-23T10:09:37;8.87;;;4.30;;
10554;SDS011;5326;51.522;7.388;2022-07-23T10:12:09;6.50;;;4.10;;
10554;SDS011;5326;51.522;7.388;2022-07-23T10:14:38;5.63;;;3.47;;
10554;SDS011;5326;51.522;7.388;2022-07-23T10:17:05;5.83;;;4.00;;
10554;SDS011;5326;51.522;7.388;2022-07-23T10:19:33;6.20;;;4.77;;
10554;SDS011;5326;51.522;7.388;2022-07-23T10:22:01;5.63;;;5.13;;
10554;SDS011;5326;51.522;7.388;2022-07-23T10:27:42;5.43;;;4.67;;
10554;SDS011;5326;51.522;7.388;2022-07-23T10:30:18;11.50;;;10.30;;
10554;SDS011;5326;51.522;7.388;2022-07-23T10:33:23;7.67;;;6.87;;
10554;SDS011;5326;51.522;7.388;2022-07-23T10:36:29;6.27;;;5.70;;
10554;SDS011;5326;51.522;7.388;2022-07-23T10:39:04;5.50;;;4.90;;
10554;SDS011;5326;51.522;7.388;2022-07-23T10:41:36;5.00;;;4.30;;
10554;SDS011;5326;51.522;7.388;2022-07-23T10:46:53;6.43;;;5.00;;
10554;SDS011;5326;51.522;7.388;2022-07-23T10:49:30;7.43;;;4.87;;
10554;SDS011;5326;51.522;7.388;2022-07-23T10:57:47;4.73;;;4.27;;
10554;SDS011;5326;51.522;7.388;2022-07-23T11:00:15;6.63;;;4.73;;
10554;SDS011;5326;51.522;7.388;2022-07-23T11:02:50;5.73;;;4.47;;
10554;SDS011;5326;51.522;7.388;2022-07-23T11:05:22;7.10;;;4.90;;
10554;SDS011;5326;51.522;7.388;2022-07-23T11:10:39;6.70;;;5.60;;
10554;SDS011;5326;51.522;7.388;2022-07-23T11:34:40;4.97;;;3.40;;
10554;SDS011;5326;51.522;7.388;2022-07-23T11:37:25;5.37;;;3.23;;
10554;SDS011;5326;51.522;7.388;2022-07-23T11:39:55;2.50;;;2.30;;
10554;SDS011;5326;51.522;7.388;2022-07-23T11:42:22;3.63;;;2.90;;
10554;SDS011;5326;51.522;7.388;2022-07-23T11:44:56;3.47;;;2.43;;
10554;SDS011;5326;51.522;7.388;2022-07-23T11:47:23;2.90;;;2.47;;
10554;SDS011;5326;51.522;7.388;2022-07-23T11:49:52;6.13;;;3.10;;
10554;SDS011;5326;51.522;7.388;2022-07-23T11:52:19;4.87;;;3.37;;
10554;SDS011;5326;51.522;7.388;2022-07-23T11:55:28;6.27;;;2.90;;
10554;SDS011;5326;51.522;7.388;2022-07-23T11:57:38;9.60;;;3.20;;
10554;SDS011;5326;51.522;7.388;2022-07-23T12:00:12;4.70;;;2.50;;
10554;SDS011;5326;51.522;7.388;2022-07-23T12:02:50;4.10;;;2.90;;
10554;SDS011;5326;51.522;7.388;2022-07-23T12:05:19;3.73;;;2.50;;
10554;SDS011;5326;51.522;7.388;2022-07-23T12:07:48;2.73;;;2.53;;
10554;SDS011;5326;51.522;7.388;2022-07-23T12:15:27;4.40;;;2.60;;
10554;SDS011;5326;51.522;7.388;2022-07-23T12:17:55;3.23;;;2.30;;
10554;SDS011;5326;51.522;7.388;2022-07-23T12:20:24;3.80;;;2.40;;
10554;SDS011;5326;51.522;7.388;2022-07-23T12:23:02;4.23;;;2.90;;
10554;SDS011;5326;51.522;7.388;2022-07-23T12:25:31;2.90;;;2.60;;
10554;SDS011;5326;51.522;7.388;2022-07-23T12:30:31;4.33;;;2.40;;
10554;SDS011;5326;51.522;7.388;2022-07-23T12:33:00;4.10;;;2.00;;
10554;SDS011;5326;51.522;7.388;2022-07-23T12:35:32;2.60;;;1.80;;
10554;SDS011;5326;51.522;7.388;2022-07-23T12:38:08;2.83;;;2.10;;
10554;SDS011;5326;51.522;7.388;2022-07-23T12:43:24;3.13;;;1.80;;
10554;SDS011;5326;51.522;7.388;2022-07-23T12:48:38;4.57;;;1.97;;
10554;SDS011;5326;51.522;7.388;2022-07-23T12:51:07;1.93;;;1.70;;
10554;SDS011;5326;51.522;7.388;2022-07-23T12:53:52;8.07;;;2.27;;
10554;SDS011;5326;51.522;7.388;2022-07-23T12:56:21;2.50;;;2.10;;
10554;SDS011;5326;51.522;7.388;2022-07-23T12:58:59;5.00;;;2.53;;
10554;SDS011;5326;51.522;7.388;2022-07-23T13:01:36;2.83;;;2.20;;
10554;SDS011;5326;51.522;7.388;2022-07-23T13:04:08;2.93;;;1.93;;
10554;SDS011;5326;51.522;7.388;2022-07-23T13:09:20;6.93;;;1.87;;
10554;SDS011;5326;51.522;7.388;2022-07-23T13:11:48;3.20;;;2.00;;
10554;SDS011;5326;51.522;7.388;2022-07-23T13:14:17;2.13;;;1.90;;
10554;SDS011;5326;51.522;7.388;2022-07-23T13:16:47;4.27;;;1.80;;
10554;SDS011;5326;51.522;7.388;2022-07-23T13:19:14;3.70;;;2.00;;
10554;SDS011;5326;51.522;7.388;2022-07-23T13:21:44;2.53;;;1.77;;
10554;SDS011;5326;51.522;7.388;2022-07-23T13:24:11;2.37;;;1.60;;
10554;SDS011;5326;51.522;7.388;2022-07-23T13:26:39;2.27;;;2.07;;
10554;SDS011;5326;51.522;7.388;2022-07-23T13:29:06;2.30;;;1.87;;
10554;SDS011;5326;51.522;7.388;2022-07-23T13:31:35;4.07;;;1.90;;
10554;SDS011;5326;51.522;7.388;2022-07-23T13:34:04;4.17;;;1.80;;
10554;SDS011;5326;51.522;7.388;2022-07-23T13:36:33;3.27;;;1.93;;
10554;SDS011;5326;51.522;7.388;2022-07-23T13:39:03;3.57;;;1.90;;
10554;SDS011;5326;51.522;7.388;2022-07-23T13:41:33;2.10;;;1.50;;
10554;SDS011;5326;51.522;7.388;2022-07-23T13:44:01;3.03;;;1.60;;
10554;SDS011;5326;51.522;7.388;2022-07-23T13:46:28;2.60;;;1.73;;
10554;SDS011;5326;51.522;7.388;2022-07-23T13:48:55;2.37;;;1.90;;
10554;SDS011;5326;51.522;7.388;2022-07-23T13:51:21;4.83;;;2.60;;
10554;SDS011;5326;51.522;7.388;2022-07-23T13:53:51;4.47;;;3.47;;
10554;SDS011;5326;51.522;7.388;2022-07-23T13:56:18;3.77;;;2.13;;
10554;SDS011;5326;51.522;7.388;2022-07-23T13:58:45;4.83;;;2.03;;
10554;SDS011;5326;51.522;7.388;2022-07-23T14:01:12;9.13;;;2.00;;
10554;SDS011;5326;51.522;7.388;2022-07-23T14:03:39;3.50;;;2.30;;
10554;SDS011;5326;51.522;7.388;2022-07-23T14:06:06;2.93;;;2.10;;
10554;SDS011;5326;51.522;7.388;2022-07-23T14:08:42;3.27;;;2.50;;
10554;SDS011;5326;51.522;7.388;2022-07-23T14:11:13;6.03;;;5.17;;
10554;SDS011;5326;51.522;7.388;2022-07-23T14:13:39;3.17;;;2.13;;
10554;SDS011;5326;51.522;7.388;2022-07-23T14:16:06;3.63;;;2.03;;
10554;SDS011;5326;51.522;7.388;2022-07-23T14:18:34;2.97;;;2.10;;
10554;SDS011;5326;51.522;7.388;2022-07-23T14:21:01;2.13;;;1.83;;
10554;SDS011;5326;51.522;7.388;2022-07-23T14:23:29;4.20;;;2.03;;
10554;SDS011;5326;51.522;7.388;2022-07-23T14:25:56;7.20;;;2.10;;
10554;SDS011;5326;51.522;7.388;2022-07-23T14:28:23;3.40;;;2.23;;
10554;SDS011;5326;51.522;7.388;2022-07-23T14:30:50;2.20;;;1.90;;
10554;SDS011;5326;51.522;7.388;2022-07-23T14:33:16;2.43;;;1.80;;
10554;SDS011;5326;51.522;7.388;2022-07-23T14:35:44;2.40;;;2.17;;
10554;SDS011;5326;51.522;7.388;2022-07-23T14:38:10;3.70;;;2.30;;
10554;SDS011;5326;51.522;7.388;2022-07-23T14:40:39;4.15;;;2.95;;
10554;SDS011;5326;51.522;7.388;2022-07-23T14:43:06;4.40;;;2.63;;
10554;SDS011;5326;51.522;7.388;2022-07-23T14:45:36;2.65;;;2.30;;
10554;SDS011;5326;51.522;7.388;2022-07-23T14:48:02;2.75;;;2.35;;
10554;SDS011;5326;51.522;7.388;2022-07-23T14:50:29;2.90;;;2.70;;
10554;SDS011;5326;51.522;7.388;2022-07-23T14:52:56;3.00;;;2.00;;
10554;SDS011;5326;51.522;7.388;2022-07-23T14:55:22;2.10;;;1.90;;
10554;SDS011;5326;51.522;7.388;2022-07-23T14:57:49;3.15;;;2.08;;
10554;SDS011;5326;51.522;7.388;2022-07-23T15:00:17;4.03;;;1.83;;
10554;SDS011;5326;51.522;7.388;2022-07-23T15:02:49;3.17;;;2.28;;
10554;SDS011;5326;51.522;7.388;2022-07-23T15:05:35;3.50;;;2.97;;
10554;SDS011;5326;51.522;7.388;2022-07-23T15:08:02;3.25;;;2.50;;
10554;SDS011;5326;51.522;7.388;2022-07-23T15:10:34;3.60;;;1.95;;
10554;SDS011;5326;51.522;7.388;2022-07-23T15:13:03;6.53;;;4.68;;
10554;SDS011;5326;51.522;7.388;2022-07-23T15:15:30;4.43;;;2.35;;
10554;SDS011;5326;51.522;7.388;2022-07-23T15:17:57;2.22;;;2.03;;
10554;SDS011;5326;51.522;7.388;2022-07-23T15:20:24;3.90;;;2.22;;
10554;SDS011;5326;51.522;7.388;2022-07-23T15:23:05;5.65;;;2.25;;
10554;SDS011;5326;51.522;7.388;2022-07-23T15:25:33;3.22;;;2.25;;
10554;SDS011;5326;51.522;7.388;2022-07-23T15:28:00;3.05;;;2.05;;
10554;SDS011;5326;51.522;7.388;2022-07-23T15:30:27;2.83;;;2.40;;
10554;SDS011;5326;51.522;7.388;2022-07-23T15:32:54;5.10;;;2.60;;
10554;SDS011;5326;51.522;7.388;2022-07-23T15:35:21;2.15;;;1.92;;
10554;SDS011;5326;51.522;7.388;2022-07-23T15:37:48;2.30;;;2.10;;
10554;SDS011;5326;51.522;7.388;2022-07-23T15:40:15;2.63;;;1.95;;
10554;SDS011;5326;51.522;7.388;2022-07-23T15:42:41;3.58;;;2.78;;
10554;SDS011;5326;51.522;7.388;2022-07-23T15:45:09;4.15;;;2.40;;
10554;SDS011;5326;51.522;7.388;2022-07-23T15:47:36;4.07;;;2.55;;
10554;SDS011;5326;51.522;7.388;2022-07-23T15:50:02;4.95;;;3.90;;
10554;SDS011;5326;51.522;7.388;2022-07-23T15:52:29;4.50;;;3.85;;
10554;SDS011;5326;51.522;7.388;2022-07-23T15:54:56;8.05;;;3.42;;
10554;SDS011;5326;51.522;7.388;2022-07-23T15:57:24;4.10;;;2.90;;
10554;SDS011;5326;51.522;7.388;2022-07-23T15:59:51;6.10;;;3.65;;
10554;SDS011;5326;51.522;7.388;2022-07-23T16:02:17;2.53;;;2.33;;
10554;SDS011;5326;51.522;7.388;2022-07-23T16:04:47;5.20;;;2.53;;
10554;SDS011;5326;51.522;7.388;2022-07-23T16:07:13;6.85;;;6.07;;